Time;durP1;ratioP1;P1;durP2;ratioP2;P2;SDS_P1;SDS_P2;PMS_P1;PMS_P2;Temp;Humidity;BMP_temperature;BMP_pressure;BME280_temperature;BME280_humidity;BME280_pressure;Samples;Min_cycle;Max_cycle;Signal;HPM_P1;HPM_P2
2023/10/18 00:01:31;;;;;;;35.75;16.15;;;2.80;99.90;;;;;;4877634;29;20060;-78
2023/10/18 00:03:56;;;;;;;40.38;18.85;;;4.60;99.90;;;;;;4878472;29;20388;-75
2023/10/18 00:06:23;;;;;;;41.30;19.20;;;2.90;99.90;;;;;;4877425;29;20163;-77
2023/10/18 00:08:58;;;;;;;44.00;20.92;;;2.90;99.90;;;;;;4877192;29;20056;-79
2023/10/18 00:11:26;;;;;;;46.67;20.70;;;5.20;99.90;;;;;;4879348;29;20064;-76
2023/10/18 00:13:53;;;;;;;49.03;21.48;;;2.90;99.90;;;;;;4863390;29;20056;-79
2023/10/18 00:16:21;;;;;;;55.60;23.15;;;3.90;99.90;;;;;;4878904;29;20056;-76
2023/10/18 00:18:47;;;;;;;51.90;21.73;;;3.00;99.90;;;;;;4878803;29;20060;-78
2023/10/18 00:21:13;;;;;;;60.67;23.10;;;3.00;99.90;;;;;;4878950;29;20068;-77
2023/10/18 00:23:39;;;;;;;60.03;23.65;;;3.40;99.90;;;;;;4895228;29;20060;-76
2023/10/18 00:26:09;;;;;;;59.63;26.15;;;3.20;99.90;;;;;;4878720;29;20060;-76
2023/10/18 00:28:39;;;;;;;67.50;27.15;;;3.10;99.90;;;;;;4879081;29;20052;-75
2023/10/18 00:31:20;;;;;;;72.80;28.10;;;3.10;99.90;;;;;;4878023;29;20067;-78
2023/10/18 00:33:47;;;;;;;66.03;26.38;;;3.10;99.90;;;;;;4878634;29;20491;-77
2023/10/18 00:36:16;;;;;;;64.72;26.27;;;5.00;99.90;;;;;;4877441;29;20151;-76
2023/10/18 00:38:43;;;;;;;60.40;28.35;;;5.40;99.90;;;;;;4878397;29;20075;-78
2023/10/18 00:41:14;;;;;;;72.68;28.65;;;3.30;99.90;;;;;;4878115;29;20103;-76
2023/10/18 00:43:44;;;;;;;71.95;28.63;;;5.60;99.90;;;;;;4878366;29;20071;-75
2023/10/18 00:46:10;;;;;;;68.93;29.05;;;5.80;99.90;;;;;;4893367;29;20057;-77
2023/10/18 00:48:37;;;;;;;78.35;28.38;;;3.20;99.90;;;;;;4893154;29;20076;-77
2023/10/18 00:51:03;;;;;;;75.88;29.38;;;3.20;99.90;;;;;;4891066;29;20056;-77
2023/10/18 00:53:33;;;;;;;75.43;28.83;;;3.40;99.90;;;;;;4876398;29;20048;-78
2023/10/18 00:55:59;;;;;;;71.10;30.17;;;5.40;99.90;;;;;;4876396;29;20056;-77
2023/10/18 00:58:32;;;;;;;74.55;29.02;;;3.20;99.90;;;;;;4877348;29;20064;-79
2023/10/18 01:01:08;;;;;;;;;;;3.90;99.90;;;;;;4877739;29;20061;-76
2023/10/18 01:03:38;;;;;;;71.07;29.25;;;3.30;99.90;;;;;;4877690;29;19934;-75
2023/10/18 01:06:09;;;;;;;78.80;28.10;;;5.50;99.90;;;;;;4878119;29;20556;-79
2023/10/18 01:29:30;;;;;;;80.28;29.75;;;3.10;99.90;;;;;;4974214;23;20090;-76
2023/10/18 01:31:56;;;;;;;71.65;34.05;;;4.80;99.90;;;;;;4931709;29;20186;-78
2023/10/18 01:34:25;;;;;;;83.70;31.98;;;4.80;99.90;;;;;;4928794;29;20051;-79
2023/10/18 01:36:56;;;;;;;67.97;29.80;;;3.10;99.90;;;;;;4935585;28;20520;-79
2023/10/18 01:39:22;;;;;;;66.93;30.23;;;3.50;99.90;;;;;;4928025;29;20059;-78
2023/10/18 01:41:49;;;;;;;76.85;31.92;;;3.00;99.90;;;;;;4934876;29;20728;-78
2023/10/18 01:44:27;;;;;;;67.40;28.50;;;3.90;99.90;;;;;;4918535;29;20529;-79
2023/10/18 01:46:55;;;;;;;79.47;32.50;;;3.00;99.90;;;;;;4933531;29;20055;-78
2023/10/18 01:49:29;;;;;;;73.07;28.10;;;3.00;99.90;;;;;;4925938;29;20150;-79
2023/10/18 01:51:57;;;;;;;67.68;27.88;;;4.00;99.90;;;;;;4933196;28;20078;-79
2023/10/18 01:54:26;;;;;;;68.15;28.45;;;3.50;99.90;;;;;;4926479;28;20430;-78
2023/10/18 01:56:57;;;;;;;83.05;32.10;;;2.90;99.90;;;;;;4932909;29;20138;-78
2023/10/18 01:59:29;;;;;;;69.85;28.65;;;3.00;99.90;;;;;;4910190;29;20053;-79
2023/10/18 02:01:58;;;;;;;71.65;31.30;;;2.90;99.90;;;;;;4933268;28;20055;-79
2023/10/18 02:04:30;;;;;;;71.43;31.52;;;4.90;99.90;;;;;;4928162;29;20059;-78
2023/10/18 02:07:00;;;;;;;68.60;30.50;;;4.20;99.90;;;;;;4933367;28;20051;-78
2023/10/18 02:09:52;;;;;;;72.13;30.67;;;2.80;99.90;;;;;;4927238;29;20501;-79
2023/10/18 02:12:21;;;;;;;75.40;32.13;;;2.80;99.90;;;;;;4950419;28;20087;-79
2023/10/18 02:14:56;;;;;;;74.22;31.25;;;4.10;99.90;;;;;;4935414;28;20055;-78
2023/10/18 02:17:22;;;;;;;81.47;31.77;;;2.80;99.90;;;;;;4935078;28;20077;-79
2023/10/18 02:19:48;;;;;;;65.45;31.25;;;3.10;99.90;;;;;;4934594;29;20668;-78
2023/10/18 02:22:16;;;;;;;79.50;31.52;;;2.80;99.90;;;;;;4928398;29;20047;-80
2023/10/18 02:24:44;;;;;;;67.47;31.10;;;2.90;99.90;;;;;;4938410;28;20057;-79
2023/10/18 02:27:15;;;;;;;64.47;31.65;;;5.30;99.90;;;;;;4937668;28;20130;-78
2023/10/18 02:29:42;;;;;;;74.78;31.17;;;2.80;99.90;;;;;;4933277;29;20059;-75
2023/10/18 02:32:23;;;;;;;79.18;33.63;;;2.90;99.90;;;;;;4936788;28;20593;-80
2023/10/18 02:34:52;;;;;;;67.53;31.45;;;2.80;99.90;;;;;;4933041;23;20352;-80
2023/10/18 02:37:19;;;;;;;72.88;29.83;;;2.80;99.90;;;;;;4878638;29;20059;-78
2023/10/18 02:39:45;;;;;;;72.25;29.63;;;2.50;99.90;;;;;;4899352;29;20067;-78
2023/10/18 02:42:13;;;;;;;76.35;31.52;;;2.70;99.90;;;;;;4898841;29;20059;-79
2023/10/18 02:44:42;;;;;;;75.50;32.08;;;4.90;99.90;;;;;;4899643;29;20060;-77
2023/10/18 02:47:22;;;;;;;73.38;32.40;;;3.70;99.90;;;;;;4899186;29;20059;-78
2023/10/18 02:49:51;;;;;;;82.40;32.33;;;2.70;99.90;;;;;;4895767;29;20177;-78
2023/10/18 02:52:20;;;;;;;68.97;31.88;;;2.50;99.90;;;;;;4891083;29;20292;-79
2023/10/18 02:54:48;;;;;;;77.00;32.72;;;2.70;99.90;;;;;;4899083;29;20079;-77
2023/10/18 02:57:14;;;;;;;84.22;35.55;;;2.70;99.90;;;;;;4884269;29;20059;-77
2023/10/18 02:59:41;;;;;;;84.18;33.40;;;2.70;99.90;;;;;;4898041;29;20052;-76
2023/10/18 03:02:13;;;;;;;82.93;33.67;;;2.60;99.90;;;;;;4898794;29;20051;-78
2023/10/18 03:04:42;;;;;;;;;;;2.60;99.90;;;;;;4908704;29;20585;-79
2023/10/18 03:07:12;;;;;;;85.38;31.80;;;2.70;99.90;;;;;;4899361;29;19930;-79
2023/10/18 03:09:41;;;;;;;75.32;33.13;;;2.60;99.90;;;;;;4893299;29;20131;-78
2023/10/18 03:12:13;;;;;;;91.32;33.97;;;2.60;99.90;;;;;;4897743;29;20060;-77
2023/10/18 03:14:41;;;;;;;79.85;34.35;;;2.60;99.90;;;;;;4894222;29;20055;-79
2023/10/18 03:17:23;;;;;;;79.00;33.65;;;2.60;99.90;;;;;;4897364;29;20048;-79
2023/10/18 03:19:55;;;;;;;73.50;33.22;;;4.80;99.90;;;;;;4894599;29;20510;-78
2023/10/18 03:22:25;;;;;;;91.65;34.65;;;2.90;99.90;;;;;;4883541;29;20055;-78
2023/10/18 03:24:55;;;;;;;92.03;34.60;;;2.80;99.90;;;;;;4898336;29;20145;-79
2023/10/18 03:27:29;;;;;;;90.28;34.40;;;2.60;99.90;;;;;;4890735;29;20044;-80
2023/10/18 03:29:58;;;;;;;88.00;35.38;;;2.60;99.90;;;;;;4897525;29;20650;-79
2023/10/18 03:32:25;;;;;;;85.93;32.72;;;2.50;99.90;;;;;;4890199;29;20379;-79
2023/10/18 03:34:54;;;;;;;85.03;35.25;;;2.50;99.90;;;;;;4895262;29;20131;-80
2023/10/18 03:37:26;;;;;;;93.32;36.97;;;2.60;99.90;;;;;;4867061;29;20163;-77
2023/10/18 03:39:55;;;;;;;90.78;36.88;;;3.10;99.90;;;;;;4895172;29;20154;-80
2023/10/18 03:45:22;;;;;;;88.28;34.13;;;2.50;99.90;;;;;;4895119;29;20052;-81
2023/10/18 03:47:57;;;;;;;86.78;34.00;;;4.00;99.90;;;;;;4895885;29;20131;-80
2023/10/18 03:50:40;;;;;;;82.28;34.55;;;4.10;99.90;;;;;;4889534;29;20048;-79
2023/10/18 03:53:08;;;;;;;83.35;36.13;;;2.50;99.90;;;;;;4897062;29;20519;-80
2023/10/18 03:55:42;;;;;;;102.22;40.05;;;-0.20;99.90;;;;;;4892060;29;20052;-79
2023/10/18 03:58:08;;;;;;;108.88;40.40;;;3.20;99.90;;;;;;4897192;29;20155;-80
2023/10/18 04:00:46;;;;;;;107.28;37.53;;;2.50;99.90;;;;;;4891775;29;20554;-79
2023/10/18 04:03:20;;;;;;;102.28;37.95;;;2.50;99.90;;;;;;4896654;29;20052;-78
2023/10/18 04:05:46;;;;;;;98.65;38.50;;;2.50;99.90;;;;;;4898638;29;20103;-78
2023/10/18 04:08:17;;;;;;;91.63;37.67;;;1.20;99.90;;;;;;4881463;29;20713;-79
2023/10/18 04:10:44;;;;;;;107.57;38.47;;;2.50;99.90;;;;;;4897723;29;20066;-80
2023/10/18 04:13:14;;;;;;;116.43;40.40;;;2.50;99.90;;;;;;4897031;29;20099;-79
2023/10/18 04:15:45;;;;;;;94.15;37.42;;;2.50;99.90;;;;;;4893462;29;20052;-79
2023/10/18 04:18:12;;;;;;;97.55;36.95;;;2.60;99.90;;;;;;4897148;29;20408;-79
2023/10/18 04:20:42;;;;;;;122.07;42.17;;;2.50;99.90;;;;;;4893147;29;20119;-77
2023/10/18 04:23:25;;;;;;;126.75;43.22;;;4.80;99.90;;;;;;4896523;29;20119;-80
2023/10/18 04:26:01;;;;;;;98.07;37.38;;;1.40;99.90;;;;;;4893308;29;20055;-79
2023/10/18 04:28:31;;;;;;;114.95;39.78;;;4.90;99.90;;;;;;4889976;29;20733;-78
2023/10/18 04:31:01;;;;;;;111.55;41.55;;;2.80;99.90;;;;;;4880595;29;20139;-79
2023/10/18 04:33:41;;;;;;;96.93;39.50;;;2.40;99.90;;;;;;4905405;29;20056;-80
2023/10/18 04:36:14;;;;;;;92.32;38.78;;;2.50;99.90;;;;;;4889590;29;20064;-80
2023/10/18 04:38:46;;;;;;;98.68;39.55;;;2.50;99.90;;;;;;4891839;29;20059;-80
2023/10/18 04:44:09;;;;;;;119.93;40.35;;;2.50;99.90;;;;;;4896667;29;20052;-80
2023/10/18 04:46:39;;;;;;;103.53;40.80;;;2.50;99.90;;;;;;4891538;29;20044;-80
2023/10/18 04:54:10;;;;;;;107.97;40.67;;;2.50;99.90;;;;;;4896402;29;20059;-80
2023/10/18 04:57:38;;;;;;;97.22;39.53;;;2.40;99.90;;;;;;4892088;29;20518;-80
2023/10/18 05:00:24;;;;;;;121.50;42.22;;;2.40;99.90;;;;;;4893655;29;20060;-79
2023/10/18 05:03:13;;;;;;;104.40;39.63;;;2.30;99.90;;;;;;4892842;29;20056;-81
2023/10/18 05:06:08;;;;;;;109.18;40.78;;;4.20;99.90;;;;;;4873483;29;20634;-80
2023/10/18 05:08:56;;;;;;;122.82;40.70;;;4.10;99.90;;;;;;4895864;29;20083;-79
2023/10/18 05:11:55;;;;;;;114.78;40.72;;;0.10;99.90;;;;;;4894968;29;20062;-79
2023/10/18 05:17:30;;;;;;;105.15;39.15;;;2.30;99.90;;;;;;4895779;29;20070;-81
2023/10/18 05:22:52;;;;;;;110.63;38.33;;;2.20;99.90;;;;;;4891896;29;19927;-78
2023/10/18 05:27:47;;;;;;;108.20;39.75;;;3.90;99.90;;;;;;4894654;29;20115;-79
2023/10/18 05:30:18;;;;;;;107.22;39.25;;;3.50;99.90;;;;;;4894209;29;20065;-80
2023/10/18 05:35:33;;;;;;;124.72;42.63;;;2.20;99.90;;;;;;4897980;28;20064;-80
2023/10/18 05:38:06;;;;;;;136.20;44.33;;;4.30;99.90;;;;;;4895889;29;20056;-79
2023/10/18 05:43:06;;;;;;;110.05;42.42;;;2.10;99.90;;;;;;4889983;29;20090;-80
2023/10/18 05:45:33;;;;;;;121.63;44.38;;;2.10;99.90;;;;;;4882534;29;20927;-79
2023/10/18 05:48:03;;;;;;;118.88;44.40;;;4.10;99.90;;;;;;4911250;29;20059;-80
2023/10/18 05:50:35;;;;;;;135.75;45.22;;;2.10;99.90;;;;;;4890024;29;20619;-79
2023/10/18 05:53:06;;;;;;;112.50;43.47;;;2.90;99.90;;;;;;4879552;29;20114;-79
2023/10/18 05:55:33;;;;;;;128.10;44.17;;;2.30;99.90;;;;;;4883163;29;20054;-79
2023/10/18 05:58:04;;;;;;;117.45;43.35;;;2.20;99.90;;;;;;4899345;29;20307;-80
2023/10/18 06:00:32;;;;;;;123.63;44.72;;;2.80;99.90;;;;;;4893527;29;20052;-75
2023/10/18 06:02:59;;;;;;;105.88;42.33;;;2.10;99.90;;;;;;4898585;29;20055;-79
2023/10/18 06:05:27;;;;;;;120.72;43.45;;;2.30;99.90;;;;;;4895728;29;20048;-80
2023/10/18 06:07:53;;;;;;;122.97;43.17;;;4.40;99.90;;;;;;4898386;29;20048;-79
2023/10/18 06:10:23;;;;;;;119.85;44.60;;;2.30;99.90;;;;;;4889308;29;20048;-79
2023/10/18 06:12:56;;;;;;;117.13;42.88;;;2.30;99.90;;;;;;4898708;29;20051;-80
2023/10/18 06:15:34;;;;;;;115.75;43.53;;;2.70;99.90;;;;;;4890522;29;20155;-78
2023/10/18 06:18:00;;;;;;;102.88;40.72;;;3.50;99.90;;;;;;4896814;29;20795;-77
2023/10/18 06:20:29;;;;;;;106.03;43.28;;;2.40;99.90;;;;;;4886886;29;20048;-77
2023/10/18 06:25:49;;;;;;;111.45;42.72;;;2.40;99.90;;;;;;4884746;29;20060;-79
2023/10/18 06:28:21;;;;;;;149.02;49.55;;;2.50;99.90;;;;;;4895686;29;20074;-80
2023/10/18 06:30:51;;;;;;;118.13;45.45;;;3.90;99.90;;;;;;4897009;29;20111;-80
2023/10/18 06:33:21;;;;;;;112.03;43.20;;;3.70;99.90;;;;;;4894764;29;20684;-80
2023/10/18 06:35:53;;;;;;;118.90;44.58;;;4.20;99.90;;;;;;4920874;23;20627;-77
2023/10/18 06:38:23;;;;;;;136.43;46.22;;;2.60;99.90;;;;;;4923128;29;20055;-80
2023/10/18 06:41:29;;;;;;;113.15;45.58;;;3.70;99.90;;;;;;4935085;23;20051;-80
2023/10/18 06:44:02;;;;;;;126.68;45.08;;;2.70;99.90;;;;;;4900988;29;20062;-79
2023/10/18 06:46:32;;;;;;;126.82;44.15;;;2.80;99.90;;;;;;4902596;29;20039;-77
2023/10/18 06:49:00;;;;;;;119.03;44.90;;;2.90;99.90;;;;;;4908164;23;20055;-80
2023/10/18 06:51:33;;;;;;;105.07;44.30;;;2.90;99.90;;;;;;4921006;23;20743;-78
2023/10/18 06:54:04;;;;;;;118.22;42.65;;;3.20;99.90;;;;;;4913506;23;20060;-74
2023/10/18 06:56:39;;;;;;;133.85;48.15;;;3.10;99.90;;;;;;4900290;29;20071;-75
2023/10/18 06:59:10;;;;;;;103.95;43.67;;;5.10;99.90;;;;;;4898281;23;20115;-78
2023/10/18 07:01:42;;;;;;;109.55;44.72;;;4.40;99.90;;;;;;4897532;29;20123;-76
2023/10/18 07:04:37;;;;;;;116.07;45.88;;;3.40;99.90;;;;;;4898476;29;20056;-76
2023/10/18 07:07:11;;;;;;;106.43;45.60;;;3.50;99.90;;;;;;4918918;23;20072;-78
2023/10/18 07:09:43;;;;;;;103.35;45.50;;;4.80;99.90;;;;;;4903912;29;20507;-77
2023/10/18 07:12:12;;;;;;;100.95;42.88;;;3.90;99.90;;;;;;4933230;23;20059;-79
2023/10/18 07:14:38;;;;;;;100.18;40.78;;;3.70;99.90;;;;;;4922835;29;20146;-77
2023/10/18 07:17:04;;;;;;;98.75;43.95;;;5.90;99.90;;;;;;4936749;28;20802;-79
2023/10/18 07:19:35;;;;;;;91.65;42.67;;;4.30;99.90;;;;;;4937340;29;20139;-75
2023/10/18 07:22:06;;;;;;;98.63;43.38;;;4.00;99.90;;;;;;4936722;28;20221;-73
2023/10/18 07:24:36;;;;;;;84.38;41.70;;;4.00;99.90;;;;;;4937817;29;20190;-77
2023/10/18 07:27:09;;;;;;;87.60;40.88;;;5.40;99.90;;;;;;4936194;29;20190;-73
2023/10/18 07:29:45;;;;;;;87.53;41.42;;;7.00;99.90;;;;;;4937833;29;20047;-77
2023/10/18 07:32:07;;;;;;;81.68;40.70;;;4.30;99.90;;;;;;4923854;23;20048;-75
2023/10/18 07:34:36;;;;;;;81.97;39.42;;;4.30;99.90;;;;;;4907504;23;20056;-72
2023/10/18 07:37:32;;;;;;;75.80;38.67;;;4.30;99.90;;;;;;4917721;29;20621;-75
2023/10/18 07:39:59;;;;;;;80.40;37.70;;;5.60;99.90;;;;;;4917295;29;20070;-74
2023/10/18 07:42:34;;;;;;;82.15;39.65;;;4.50;99.90;;;;;;4935346;23;20055;-74
2023/10/18 07:45:04;;;;;;;73.53;38.22;;;5.80;99.90;;;;;;4923814;23;20055;-76
2023/10/18 07:47:37;;;;;;;67.03;34.72;;;4.70;99.90;;;;;;4902478;29;20146;-75
2023/10/18 07:50:34;;;;;;;66.53;34.22;;;5.10;99.90;;;;;;4958528;23;20051;-75
2023/10/18 07:52:56;;;;;;;64.30;32.80;;;4.90;99.90;;;;;;4932192;28;20889;-78
2023/10/18 07:55:23;;;;;;;57.00;33.05;;;2.40;99.90;;;;;;4940842;23;20156;-73
2023/10/18 07:57:49;;;;;;;62.15;33.35;;;5.20;99.90;;;;;;4896646;29;20102;-74
2023/10/18 08:00:22;;;;;;;53.75;32.58;;;5.10;99.90;;;;;;4895426;29;20052;-74
2023/10/18 08:02:49;;;;;;;57.45;32.38;;;5.20;99.90;;;;;;4896417;29;20084;-73
2023/10/18 08:05:30;;;;;;;49.08;31.35;;;5.30;99.90;;;;;;4896000;29;20797;-76
2023/10/18 08:08:08;;;;;;;48.50;29.50;;;5.60;99.90;;;;;;4896015;29;20059;-73
2023/10/18 08:10:35;;;;;;;50.53;28.35;;;5.60;99.90;;;;;;4896089;29;20479;-74
2023/10/18 08:13:07;;;;;;;50.47;29.60;;;6.00;99.90;;;;;;4896406;29;20068;-74
2023/10/18 08:15:36;;;;;;;45.83;30.23;;;5.70;99.90;;;;;;4903994;23;20134;-72
2023/10/18 08:18:15;;;;;;;46.95;28.15;;;6.70;99.90;;;;;;4888766;29;20048;-78
2023/10/18 08:25:51;;;;;;;38.03;24.00;;;6.10;99.90;;;;;;4891466;29;20408;-77
2023/10/18 08:28:20;;;;;;;36.45;23.10;;;6.20;99.90;;;;;;4875260;29;20056;-78
2023/10/18 08:33:11;;;;;;;33.42;21.88;;;6.30;99.90;;;;;;4863633;29;20056;-76
2023/10/18 08:35:37;;;;;;;32.42;22.58;;;6.40;99.90;;;;;;4886285;29;20139;-74
2023/10/18 08:38:06;;;;;;;33.08;21.08;;;6.50;99.90;;;;;;4875163;29;20079;-77
2023/10/18 08:40:37;;;;;;;30.95;21.33;;;6.60;99.90;;;;;;4875253;29;20091;-75
2023/10/18 08:43:28;;;;;;;33.80;22.83;;;6.70;99.90;;;;;;4875039;29;20560;-73
2023/10/18 08:45:55;;;;;;;30.92;20.30;;;6.70;99.90;;;;;;4863333;29;20052;-75
2023/10/18 08:48:28;;;;;;;28.73;20.23;;;6.80;99.90;;;;;;4876026;29;20055;-75
2023/10/18 08:51:02;;;;;;;31.75;20.33;;;7.70;99.90;;;;;;4889314;29;20071;-73
2023/10/18 08:53:31;;;;;;;30.77;19.80;;;6.90;99.90;;;;;;4867936;29;20051;-73
2023/10/18 08:55:58;;;;;;;27.52;20.52;;;7.00;99.90;;;;;;4886903;29;20111;-74
2023/10/18 08:58:30;;;;;;;25.23;18.05;;;7.10;99.90;;;;;;4864136;29;20052;-71
2023/10/18 09:01:14;;;;;;;;;;;7.60;99.90;;;;;;4891500;29;20166;-72
2023/10/18 09:03:39;;;;;;;27.85;18.23;;;7.30;99.90;;;;;;4863586;29;20327;-72
2023/10/18 09:06:07;;;;;;;24.55;17.17;;;7.30;99.90;;;;;;4861347;29;20059;-74
2023/10/18 09:08:44;;;;;;;27.55;18.92;;;7.40;99.90;;;;;;4871258;29;20533;-75
2023/10/18 09:11:21;;;;;;;29.48;17.45;;;7.50;99.90;;;;;;4859299;29;20190;-75
2023/10/18 09:14:07;;;;;;;26.30;16.35;;;7.60;99.90;;;;;;4883037;29;20064;-73
2023/10/18 09:16:41;;;;;;;22.58;16.67;;;7.70;99.90;;;;;;4875186;29;20192;-74
2023/10/18 09:19:08;;;;;;;27.90;17.45;;;7.70;99.90;;;;;;4856995;29;21368;-75
2023/10/18 09:24:22;;;;;;;22.80;15.15;;;7.90;99.90;;;;;;4872986;29;20056;-75
2023/10/18 09:26:57;;;;;;;21.65;15.02;;;7.90;99.90;;;;;;4884163;29;20048;-75
2023/10/18 09:29:26;;;;;;;23.58;16.35;;;8.00;99.90;;;;;;4860697;29;20059;-74
2023/10/18 09:34:54;;;;;;;22.02;14.82;;;8.70;99.90;;;;;;4842827;29;20060;-75
2023/10/18 09:37:28;;;;;;;24.42;14.32;;;8.20;99.90;;;;;;4861458;29;20060;-74
2023/10/18 09:39:56;;;;;;;21.10;15.68;;;8.30;99.90;;;;;;4863219;29;20063;-72
2023/10/18 09:42:22;;;;;;;21.80;15.30;;;8.90;99.90;;;;;;4860244;29;20067;-74
2023/10/18 09:44:48;;;;;;;18.80;14.18;;;8.40;99.90;;;;;;4820164;29;20087;-75
2023/10/18 09:47:25;;;;;;;18.63;13.48;;;8.50;99.90;;;;;;4828360;29;20316;-73
2023/10/18 09:49:51;;;;;;;22.25;15.55;;;8.60;99.90;;;;;;4855141;29;20717;-84
2023/10/18 09:52:23;;;;;;;18.13;14.13;;;8.60;99.90;;;;;;4843120;29;20115;-73
2023/10/18 09:54:50;;;;;;;19.60;13.68;;;8.60;99.90;;;;;;4846140;29;20044;-75
2023/10/18 09:57:23;;;;;;;17.92;13.63;;;8.70;99.90;;;;;;4860685;29;21336;-76
2023/10/18 10:00:11;;;;;;;18.40;13.80;;;8.90;99.90;;;;;;4861265;29;20051;-76
2023/10/18 10:02:38;;;;;;;19.42;13.63;;;8.90;99.90;;;;;;4873555;29;20053;-76
2023/10/18 10:05:24;;;;;;;18.13;13.40;;;8.90;99.90;;;;;;4854368;29;20064;-75
2023/10/18 10:07:56;;;;;;;16.67;12.77;;;9.00;99.90;;;;;;4843352;29;20056;-74
2023/10/18 10:10:45;;;;;;;15.32;12.55;;;9.00;99.90;;;;;;4870543;29;20256;-76
2023/10/18 10:13:19;;;;;;;14.98;12.15;;;6.20;99.90;;;;;;4848222;29;20051;-74
2023/10/18 10:16:02;;;;;;;16.08;11.63;;;9.60;99.90;;;;;;4856029;29;22272;-76
2023/10/18 10:18:32;;;;;;;16.58;12.20;;;9.10;99.90;;;;;;4829287;29;21278;-73
2023/10/18 10:21:03;;;;;;;17.00;11.88;;;9.20;99.90;;;;;;4842299;29;20134;-81
2023/10/18 10:23:33;;;;;;;15.50;12.90;;;9.10;99.90;;;;;;4847220;29;20056;-78
2023/10/18 10:26:11;;;;;;;16.17;12.23;;;9.30;99.90;;;;;;4862802;29;20059;-76
2023/10/18 10:31:54;;;;;;;23.15;12.38;;;9.20;99.90;;;;;;4887067;29;20123;-76
2023/10/18 10:34:32;;;;;;;18.00;11.35;;;9.30;99.90;;;;;;4868995;29;20056;-75
2023/10/18 10:37:18;;;;;;;15.77;12.73;;;9.30;99.90;;;;;;4881682;28;20060;-80
2023/10/18 10:39:51;;;;;;;16.95;12.40;;;9.30;99.90;;;;;;4846995;29;20059;-73
2023/10/18 10:42:41;;;;;;;15.93;12.45;;;9.30;99.90;;;;;;4848713;29;20579;-74
2023/10/18 10:47:46;;;;;;;19.25;11.80;;;9.50;99.90;;;;;;4862640;29;20056;-76
2023/10/18 10:50:42;;;;;;;14.15;11.38;;;9.50;99.90;;;;;;4857783;29;20064;-83
2023/10/18 10:53:09;;;;;;;14.40;10.70;;;9.60;99.90;;;;;;4835704;29;20056;-77
2023/10/18 10:55:35;;;;;;;13.63;10.65;;;9.60;99.90;;;;;;4839201;29;20072;-78
2023/10/18 10:58:16;;;;;;;17.42;10.60;;;9.70;99.90;;;;;;4830791;29;20835;-75
2023/10/18 11:01:06;;;;;;;20.95;12.85;;;10.20;99.90;;;;;;4842957;29;20048;-76
2023/10/18 11:03:52;;;;;;;13.35;10.52;;;9.80;99.90;;;;;;4867524;29;20151;-78
2023/10/18 11:06:32;;;;;;;17.00;11.25;;;9.90;99.90;;;;;;4837958;29;20068;-80
2023/10/18 11:08:58;;;;;;;14.85;10.18;;;10.00;99.90;;;;;;4814580;29;20060;-77
2023/10/18 11:11:27;;;;;;;16.55;10.23;;;10.10;99.90;;;;;;4846298;29;20098;-76
2023/10/18 11:13:53;;;;;;;14.05;10.02;;;10.20;99.90;;;;;;4846937;29;20791;-70
2023/10/18 11:16:22;;;;;;;17.42;10.13;;;12.10;99.90;;;;;;4841147;29;21699;-80
2023/10/18 11:18:52;;;;;;;14.52;9.48;;;10.40;99.90;;;;;;4839744;29;20055;-76
2023/10/18 11:21:30;;;;;;;14.35;9.80;;;10.50;99.90;;;;;;4824730;29;20982;-76
2023/10/18 11:23:57;;;;;;;13.18;9.00;;;10.50;99.90;;;;;;4831482;29;20609;-76
2023/10/18 11:26:27;;;;;;;12.07;9.02;;;10.50;99.90;;;;;;4845155;29;20165;-78
2023/10/18 11:28:59;;;;;;;10.88;8.32;;;10.60;99.90;;;;;;4830206;29;20439;-78
2023/10/18 11:31:31;;;;;;;11.65;7.97;;;10.90;99.90;;;;;;4823461;29;20071;-74
2023/10/18 11:34:07;;;;;;;11.15;8.43;;;10.30;99.90;;;;;;4831193;29;20064;-81
2023/10/18 11:36:39;;;;;;;12.13;8.30;;;10.70;99.90;;;;;;4853097;29;20063;-73
2023/10/18 11:41:44;;;;;;;10.77;7.45;;;10.70;99.90;;;;;;4854149;29;20067;-78
2023/10/18 11:44:16;;;;;;;10.18;7.90;;;10.70;99.90;;;;;;4835185;29;20102;-75
2023/10/18 11:46:49;;;;;;;12.25;8.32;;;10.70;99.90;;;;;;4836608;29;20052;-79
2023/10/18 11:49:19;;;;;;;11.65;7.70;;;10.80;99.90;;;;;;4835657;29;20151;-74
2023/10/18 11:51:57;;;;;;;12.95;8.00;;;10.80;99.90;;;;;;4836692;29;20056;-75
2023/10/18 11:54:36;;;;;;;11.18;7.55;;;10.90;99.90;;;;;;4847092;29;20587;-76
2023/10/18 11:57:06;;;;;;;14.20;8.73;;;10.90;99.90;;;;;;4847203;29;20052;-78
2023/10/18 11:59:56;;;;;;;9.10;6.85;;;10.90;99.90;;;;;;4852446;29;20107;-76
2023/10/18 12:02:29;;;;;;;10.30;6.93;;;12.10;99.90;;;;;;4845155;29;20048;-79
2023/10/18 12:04:58;;;;;;;10.95;7.03;;;11.00;99.90;;;;;;4866236;29;20680;-77
2023/10/18 12:07:24;;;;;;;10.45;7.47;;;10.90;99.90;;;;;;4831587;29;22642;-76
2023/10/18 12:09:54;;;;;;;13.32;7.72;;;11.00;99.90;;;;;;4825762;29;20056;-76
2023/10/18 12:12:20;;;;;;;10.32;6.82;;;11.00;99.90;;;;;;4837984;29;20044;-79
2023/10/18 12:14:47;;;;;;;11.55;7.43;;;11.00;99.90;;;;;;4819045;29;20214;-77
2023/10/18 12:17:15;;;;;;;7.85;6.13;;;11.00;99.90;;;;;;4818001;29;20087;-77
2023/10/18 12:19:43;;;;;;;11.13;7.05;;;11.10;99.90;;;;;;4833660;29;20075;-75
2023/10/18 12:22:10;;;;;;;10.15;6.72;;;11.10;99.90;;;;;;4826146;29;20067;-76
2023/10/18 12:24:38;;;;;;;10.13;6.65;;;11.10;99.90;;;;;;4831023;29;20135;-71
2023/10/18 12:27:19;;;;;;;12.10;6.82;;;11.10;99.90;;;;;;4835172;29;20147;-71
2023/10/18 12:29:45;;;;;;;9.47;7.03;;;11.10;99.90;;;;;;4824082;29;20583;-76
2023/10/18 12:32:25;;;;;;;10.15;6.50;;;11.10;99.90;;;;;;4830289;29;20296;-77
2023/10/18 12:34:57;;;;;;;10.70;7.05;;;11.20;99.90;;;;;;4827207;29;20154;-76
2023/10/18 12:37:32;;;;;;;13.60;8.45;;;11.20;99.90;;;;;;4838766;29;20066;-73
2023/10/18 12:40:00;;;;;;;14.88;7.50;;;11.20;99.90;;;;;;4860587;29;20063;-72
2023/10/18 12:42:32;;;;;;;10.32;6.53;;;11.20;99.90;;;;;;4844383;29;20064;-74
2023/10/18 12:45:08;;;;;;;11.60;6.93;;;11.20;99.90;;;;;;4859244;29;20059;-75
2023/10/18 12:47:37;;;;;;;11.48;7.47;;;11.10;99.90;;;;;;4841651;29;21044;-74
2023/10/18 12:50:04;;;;;;;13.98;7.82;;;11.10;99.90;;;;;;4844872;29;20610;-73
2023/10/18 12:55:05;;;;;;;13.33;7.17;;;11.10;99.90;;;;;;4840267;29;20048;-75
2023/10/18 12:57:34;;;;;;;11.93;7.50;;;11.10;99.90;;;;;;4826296;29;20060;-79
2023/10/18 13:00:13;;;;;;;16.23;10.13;;;11.10;99.90;;;;;;4853646;29;20162;-76
2023/10/18 13:05:18;;;;;;;12.93;7.32;;;11.00;99.90;;;;;;4851269;29;20059;-75
2023/10/18 13:07:45;;;;;;;10.63;6.72;;;10.90;99.90;;;;;;4852176;29;20892;-76
2023/10/18 13:10:12;;;;;;;10.88;6.78;;;11.00;99.90;;;;;;4851617;29;20143;-73
2023/10/18 13:12:44;;;;;;;16.88;7.85;;;11.00;99.90;;;;;;4836301;29;20055;-75
2023/10/18 13:15:11;;;;;;;12.70;7.45;;;11.00;99.90;;;;;;4827132;29;20060;-72
2023/10/18 13:17:37;;;;;;;9.90;6.50;;;11.00;99.90;;;;;;4795073;29;20871;-83
2023/10/18 13:20:08;;;;;;;10.57;7.50;;;11.00;99.90;;;;;;4814835;29;20068;-76
2023/10/18 13:22:36;;;;;;;14.98;8.68;;;11.00;99.90;;;;;;4838329;29;22046;-72
2023/10/18 13:25:25;;;;;;;11.68;6.82;;;10.90;99.90;;;;;;4836454;29;20092;-82
2023/10/18 13:27:54;;;;;;;9.45;7.38;;;10.90;99.90;;;;;;4829442;29;20056;-72
2023/10/18 13:30:39;;;;;;;11.02;7.10;;;11.00;99.90;;;;;;4838397;29;20163;-75
2023/10/18 13:33:11;;;;;;;13.65;7.65;;;10.90;99.90;;;;;;4827992;29;20068;-73
2023/10/18 13:35:41;;;;;;;11.80;7.40;;;10.90;99.90;;;;;;4843797;29;20882;-74
2023/10/18 13:38:09;;;;;;;11.95;7.13;;;10.90;99.90;;;;;;4825028;29;20083;-77
2023/10/18 13:40:36;;;;;;;12.57;8.18;;;11.30;99.90;;;;;;4862832;29;20052;-78
2023/10/18 13:43:09;;;;;;;14.40;7.57;;;11.00;99.90;;;;;;4836903;29;20092;-76
2023/10/18 13:45:35;;;;;;;11.23;7.35;;;11.10;99.90;;;;;;4864767;29;20051;-73
2023/10/18 13:48:02;;;;;;;12.85;7.68;;;11.20;99.90;;;;;;4844646;29;20071;-74
2023/10/18 13:50:33;;;;;;;11.15;7.50;;;11.10;99.90;;;;;;4861383;29;20064;-72
2023/10/18 13:53:01;;;;;;;11.88;6.65;;;11.10;99.90;;;;;;4840376;29;21127;-73
2023/10/18 13:55:27;;;;;;;10.55;6.82;;;9.60;99.90;;;;;;4843635;29;20060;-74
2023/10/18 13:57:57;;;;;;;12.13;6.68;;;11.20;99.90;;;;;;4836811;29;20062;-79
2023/10/18 14:00:24;;;;;;;11.65;7.35;;;11.40;99.90;;;;;;4870572;29;20103;-72
2023/10/18 14:02:53;;;;;;;12.77;6.88;;;11.20;99.90;;;;;;4871993;29;20064;-75
2023/10/18 14:05:21;;;;;;;11.18;6.75;;;11.30;99.90;;;;;;4853469;29;20044;-78
2023/10/18 14:07:47;;;;;;;11.25;7.00;;;11.20;99.90;;;;;;4835114;29;21616;-76
2023/10/18 14:10:19;;;;;;;11.82;7.50;;;11.20;99.90;;;;;;4855010;29;20056;-76
2023/10/18 14:12:48;;;;;;;9.88;6.75;;;11.10;99.90;;;;;;4847029;29;20416;-77
2023/10/18 14:15:19;;;;;;;15.18;7.22;;;12.50;99.90;;;;;;4836886;29;20059;-78